sensor_id;sensor_type;location;lat;lon;timestamp;pressure;altitude;pressure_sealevel;temperature;humidity
21359;BME280;13506;50.852;20.632;2022-10-30T00:00:38;98725.50;;;16.73;94.26
21359;BME280;13506;50.852;20.632;2022-10-30T00:03:25;98730.97;;;16.69;93.97
21359;BME280;13506;50.852;20.632;2022-10-30T00:05:53;98726.44;;;16.72;94.22
21359;BME280;13506;50.852;20.632;2022-10-30T00:08:22;98716.88;;;16.71;93.88
21359;BME280;13506;50.852;20.632;2022-10-30T00:10:52;98706.75;;;16.66;94.31
21359;BME280;13506;50.852;20.632;2022-10-30T00:13:20;98720.81;;;16.65;94.53
21359;BME280;13506;50.852;20.632;2022-10-30T00:15:51;98712.00;;;16.66;95.07
21359;BME280;13506;50.852;20.632;2022-10-30T00:18:20;98703.63;;;16.61;95.16
21359;BME280;13506;50.852;20.632;2022-10-30T00:20:48;98698.00;;;16.54;96.35
21359;BME280;13506;50.852;20.632;2022-10-30T00:23:16;98704.44;;;16.61;96.05
21359;BME280;13506;50.852;20.632;2022-10-30T00:25:43;98709.38;;;16.66;95.61
21359;BME280;13506;50.852;20.632;2022-10-30T00:28:11;98716.28;;;16.67;95.75
21359;BME280;13506;50.852;20.632;2022-10-30T00:30:39;98720.00;;;16.64;95.41
21359;BME280;13506;50.852;20.632;2022-10-30T00:33:08;98712.72;;;16.68;95.13
21359;BME280;13506;50.852;20.632;2022-10-30T00:35:36;98710.91;;;16.68;95.06
21359;BME280;13506;50.852;20.632;2022-10-30T00:38:04;98712.56;;;16.69;94.66
21359;BME280;13506;50.852;20.632;2022-10-30T00:40:32;98710.09;;;16.68;95.05
21359;BME280;13506;50.852;20.632;2022-10-30T00:43:00;98709.94;;;16.69;94.89
21359;BME280;13506;50.852;20.632;2022-10-30T00:45:28;98705.63;;;16.57;96.51
21359;BME280;13506;50.852;20.632;2022-10-30T00:48:00;98710.66;;;16.60;95.70
21359;BME280;13506;50.852;20.632;2022-10-30T00:50:33;98713.91;;;16.64;95.85
21359;BME280;13506;50.852;20.632;2022-10-30T00:53:07;98713.03;;;16.63;95.39
21359;BME280;13506;50.852;20.632;2022-10-30T00:55:41;98708.16;;;16.59;95.97
21359;BME280;13506;50.852;20.632;2022-10-30T00:58:13;98699.19;;;16.61;95.71
21359;BME280;13506;50.852;20.632;2022-10-30T01:00:47;98708.75;;;16.62;95.42
21359;BME280;13506;50.852;20.632;2022-10-30T01:03:17;98706.13;;;16.62;95.93
21359;BME280;13506;50.852;20.632;2022-10-30T01:05:51;98697.91;;;16.56;96.25
21359;BME280;13506;50.852;20.632;2022-10-30T01:08:20;98698.72;;;16.56;95.93
21359;BME280;13506;50.852;20.632;2022-10-30T01:10:49;98696.81;;;16.47;96.56
21359;BME280;13506;50.852;20.632;2022-10-30T01:13:20;98690.50;;;16.49;96.13
21359;BME280;13506;50.852;20.632;2022-10-30T01:16:08;98703.50;;;16.51;95.99
21359;BME280;13506;50.852;20.632;2022-10-30T01:18:50;98696.47;;;16.52;96.39
21359;BME280;13506;50.852;20.632;2022-10-30T01:21:43;98702.53;;;16.52;96.10
21359;BME280;13506;50.852;20.632;2022-10-30T01:24:33;98693.47;;;16.45;96.92
21359;BME280;13506;50.852;20.632;2022-10-30T01:27:22;98684.63;;;16.46;96.73
21359;BME280;13506;50.852;20.632;2022-10-30T01:30:04;98687.34;;;16.44;96.47
21359;BME280;13506;50.852;20.632;2022-10-30T01:32:48;98691.78;;;16.44;96.50
21359;BME280;13506;50.852;20.632;2022-10-30T01:35:26;98681.53;;;16.41;96.42
21359;BME280;13506;50.852;20.632;2022-10-30T01:38:06;98686.78;;;16.41;96.42
21359;BME280;13506;50.852;20.632;2022-10-30T01:40:36;98688.06;;;16.35;97.14
21359;BME280;13506;50.852;20.632;2022-10-30T01:43:04;98676.75;;;16.35;96.86
21359;BME280;13506;50.852;20.632;2022-10-30T01:45:52;98679.59;;;16.32;97.17
21359;BME280;13506;50.852;20.632;2022-10-30T01:48:53;98676.97;;;16.32;97.09
21359;BME280;13506;50.852;20.632;2022-10-30T01:51:42;98661.09;;;16.22;97.66
21359;BME280;13506;50.852;20.632;2022-10-30T01:54:24;98663.00;;;16.20;98.27
21359;BME280;13506;50.852;20.632;2022-10-30T01:57:04;98658.56;;;16.20;97.37
21359;BME280;13506;50.852;20.632;2022-10-30T01:59:42;98673.59;;;16.18;97.93
21359;BME280;13506;50.852;20.632;2022-10-30T02:02:12;98693.63;;;16.08;97.87
21359;BME280;13506;50.852;20.632;2022-10-30T02:04:41;98695.31;;;16.09;98.15
21359;BME280;13506;50.852;20.632;2022-10-30T02:07:09;98696.25;;;16.08;98.18
21359;BME280;13506;50.852;20.632;2022-10-30T02:09:46;98685.75;;;16.08;98.74
21359;BME280;13506;50.852;20.632;2022-10-30T02:12:15;98684.91;;;16.07;98.09
21359;BME280;13506;50.852;20.632;2022-10-30T02:14:46;98689.91;;;16.11;98.35
21359;BME280;13506;50.852;20.632;2022-10-30T02:17:15;98689.59;;;16.15;98.38
21359;BME280;13506;50.852;20.632;2022-10-30T02:19:43;98695.44;;;16.19;98.25
21359;BME280;13506;50.852;20.632;2022-10-30T02:22:12;98695.31;;;16.20;97.99
21359;BME280;13506;50.852;20.632;2022-10-30T02:24:40;98710.88;;;16.23;98.33
21359;BME280;13506;50.852;20.632;2022-10-30T02:27:08;98701.06;;;16.25;98.52
21359;BME280;13506;50.852;20.632;2022-10-30T02:29:39;98701.78;;;16.27;98.60
21359;BME280;13506;50.852;20.632;2022-10-30T02:32:07;98691.06;;;16.31;98.28
21359;BME280;13506;50.852;20.632;2022-10-30T02:34:35;98696.78;;;16.36;97.61
21359;BME280;13506;50.852;20.632;2022-10-30T02:37:03;98687.00;;;16.38;97.69
21359;BME280;13506;50.852;20.632;2022-10-30T02:39:33;98687.72;;;16.40;96.99
21359;BME280;13506;50.852;20.632;2022-10-30T02:42:00;98687.59;;;16.41;97.38
21359;BME280;13506;50.852;20.632;2022-10-30T02:44:28;98688.44;;;16.42;97.60
21359;BME280;13506;50.852;20.632;2022-10-30T02:46:56;98671.25;;;16.38;97.31
21359;BME280;13506;50.852;20.632;2022-10-30T02:49:24;98668.16;;;16.44;97.45
21359;BME280;13506;50.852;20.632;2022-10-30T02:51:52;98665.31;;;16.47;97.01
21359;BME280;13506;50.852;20.632;2022-10-30T02:54:20;98665.53;;;16.44;96.92
21359;BME280;13506;50.852;20.632;2022-10-30T02:56:50;98672.94;;;16.39;97.43
21359;BME280;13506;50.852;20.632;2022-10-30T02:59:18;98681.75;;;16.38;97.27
21359;BME280;13506;50.852;20.632;2022-10-30T03:01:47;98670.41;;;16.37;98.46
21359;BME280;13506;50.852;20.632;2022-10-30T03:04:15;98676.03;;;16.44;97.33
21359;BME280;13506;50.852;20.632;2022-10-30T03:06:43;98677.00;;;16.43;97.79
21359;BME280;13506;50.852;20.632;2022-10-30T03:09:11;98681.88;;;16.47;97.71
21359;BME280;13506;50.852;20.632;2022-10-30T03:11:39;98685.22;;;16.49;97.90
21359;BME280;13506;50.852;20.632;2022-10-30T03:14:08;98687.59;;;16.53;97.51
21359;BME280;13506;50.852;20.632;2022-10-30T03:16:37;98685.84;;;16.53;97.38
21359;BME280;13506;50.852;20.632;2022-10-30T03:19:05;98679.50;;;16.56;97.25
21359;BME280;13506;50.852;20.632;2022-10-30T03:21:33;98672.72;;;16.53;96.82
21359;BME280;13506;50.852;20.632;2022-10-30T03:24:01;98675.34;;;16.53;97.13
21359;BME280;13506;50.852;20.632;2022-10-30T03:26:29;98676.75;;;16.57;97.05
21359;BME280;13506;50.852;20.632;2022-10-30T03:29:04;98673.19;;;16.58;97.03
21359;BME280;13506;50.852;20.632;2022-10-30T03:31:34;98672.22;;;16.59;96.77
21359;BME280;13506;50.852;20.632;2022-10-30T03:34:28;98674.63;;;16.62;96.50
21359;BME280;13506;50.852;20.632;2022-10-30T03:36:58;98674.63;;;16.62;96.64
21359;BME280;13506;50.852;20.632;2022-10-30T03:39:27;98680.81;;;16.61;96.17
21359;BME280;13506;50.852;20.632;2022-10-30T03:41:57;98672.94;;;16.61;96.88
21359;BME280;13506;50.852;20.632;2022-10-30T03:44:24;98675.56;;;16.61;96.69
21359;BME280;13506;50.852;20.632;2022-10-30T03:46:54;98673.91;;;16.60;96.40
21359;BME280;13506;50.852;20.632;2022-10-30T03:49:28;98681.78;;;16.60;96.63
21359;BME280;13506;50.852;20.632;2022-10-30T03:51:56;98675.81;;;16.58;96.49
21359;BME280;13506;50.852;20.632;2022-10-30T03:54:25;98675.19;;;16.55;96.57
21359;BME280;13506;50.852;20.632;2022-10-30T03:56:53;98669.00;;;16.56;96.86
21359;BME280;13506;50.852;20.632;2022-10-30T03:59:25;98658.72;;;16.53;97.00
21359;BME280;13506;50.852;20.632;2022-10-30T04:02:17;98643.22;;;16.49;96.24
21359;BME280;13506;50.852;20.632;2022-10-30T04:04:45;98641.88;;;16.44;96.65
21359;BME280;13506;50.852;20.632;2022-10-30T04:07:15;98639.25;;;16.44;96.50
21359;BME280;13506;50.852;20.632;2022-10-30T04:09:44;98646.66;;;16.39;96.92
21359;BME280;13506;50.852;20.632;2022-10-30T04:12:11;98640.44;;;16.40;96.73
21359;BME280;13506;50.852;20.632;2022-10-30T04:14:39;98645.84;;;16.38;97.00
21359;BME280;13506;50.852;20.632;2022-10-30T04:17:07;98638.44;;;16.32;96.90
21359;BME280;13506;50.852;20.632;2022-10-30T04:19:36;98635.66;;;16.34;96.81
21359;BME280;13506;50.852;20.632;2022-10-30T04:22:04;98644.00;;;16.27;97.11
21359;BME280;13506;50.852;20.632;2022-10-30T04:24:32;98647.38;;;16.29;97.40
21359;BME280;13506;50.852;20.632;2022-10-30T04:27:00;98646.41;;;16.31;97.46
21359;BME280;13506;50.852;20.632;2022-10-30T04:29:28;98644.63;;;16.31;97.73
21359;BME280;13506;50.852;20.632;2022-10-30T04:31:56;98648.94;;;16.32;97.25
21359;BME280;13506;50.852;20.632;2022-10-30T04:34:23;98639.38;;;16.31;97.11
21359;BME280;13506;50.852;20.632;2022-10-30T04:36:53;98636.63;;;16.33;97.30
21359;BME280;13506;50.852;20.632;2022-10-30T04:39:20;98645.81;;;16.27;97.09
21359;BME280;13506;50.852;20.632;2022-10-30T04:41:52;98652.03;;;16.26;96.92
21359;BME280;13506;50.852;20.632;2022-10-30T04:44:27;98647.84;;;16.23;96.64
21359;BME280;13506;50.852;20.632;2022-10-30T04:46:55;98649.16;;;16.18;97.08
21359;BME280;13506;50.852;20.632;2022-10-30T04:49:23;98657.72;;;16.08;98.23
21359;BME280;13506;50.852;20.632;2022-10-30T04:51:52;98651.63;;;16.08;98.27
21359;BME280;13506;50.852;20.632;2022-10-30T04:54:21;98661.53;;;16.04;98.60
21359;BME280;13506;50.852;20.632;2022-10-30T04:56:49;98652.34;;;16.10;98.11
21359;BME280;13506;50.852;20.632;2022-10-30T04:59:17;98658.31;;;16.12;97.87
21359;BME280;13506;50.852;20.632;2022-10-30T05:01:45;98662.03;;;16.10;98.90
21359;BME280;13506;50.852;20.632;2022-10-30T05:04:13;98671.69;;;16.09;99.01
21359;BME280;13506;50.852;20.632;2022-10-30T05:06:42;98666.19;;;16.12;99.08
21359;BME280;13506;50.852;20.632;2022-10-30T05:09:12;98678.13;;;16.16;98.40
21359;BME280;13506;50.852;20.632;2022-10-30T05:11:40;98684.69;;;16.11;98.86
21359;BME280;13506;50.852;20.632;2022-10-30T05:14:08;98697.31;;;16.05;99.69
21359;BME280;13506;50.852;20.632;2022-10-30T05:16:37;98716.16;;;16.11;98.46
21359;BME280;13506;50.852;20.632;2022-10-30T05:19:05;98723.94;;;16.12;98.31
21359;BME280;13506;50.852;20.632;2022-10-30T05:21:34;98715.13;;;16.13;98.17
21359;BME280;13506;50.852;20.632;2022-10-30T05:24:02;98705.56;;;16.12;98.32
21359;BME280;13506;50.852;20.632;2022-10-30T05:26:39;98704.00;;;16.10;98.80
21359;BME280;13506;50.852;20.632;2022-10-30T05:29:07;98726.44;;;16.02;98.61
21359;BME280;13506;50.852;20.632;2022-10-30T05:31:35;98742.03;;;16.04;99.03
21359;BME280;13506;50.852;20.632;2022-10-30T05:34:29;98732.50;;;16.03;99.33
21359;BME280;13506;50.852;20.632;2022-10-30T05:36:57;98707.44;;;15.99;100.00
21359;BME280;13506;50.852;20.632;2022-10-30T05:39:27;98690.16;;;15.72;100.00
21359;BME280;13506;50.852;20.632;2022-10-30T05:41:56;98662.88;;;15.51;100.00
21359;BME280;13506;50.852;20.632;2022-10-30T05:44:31;98640.59;;;15.32;100.00
21359;BME280;13506;50.852;20.632;2022-10-30T05:46:59;98660.69;;;15.44;100.00
21359;BME280;13506;50.852;20.632;2022-10-30T05:49:30;98679.75;;;15.46;100.00
21359;BME280;13506;50.852;20.632;2022-10-30T05:51:59;98706.16;;;15.56;100.00
21359;BME280;13506;50.852;20.632;2022-10-30T05:54:27;98723.56;;;15.57;100.00
21359;BME280;13506;50.852;20.632;2022-10-30T05:57:17;98715.97;;;15.65;100.00
21359;BME280;13506;50.852;20.632;2022-10-30T05:59:44;98728.56;;;15.73;100.00
21359;BME280;13506;50.852;20.632;2022-10-30T06:02:13;98738.09;;;15.74;100.00
21359;BME280;13506;50.852;20.632;2022-10-30T06:04:41;98745.97;;;15.74;100.00
21359;BME280;13506;50.852;20.632;2022-10-30T06:07:12;98741.09;;;15.81;100.00
21359;BME280;13506;50.852;20.632;2022-10-30T06:09:40;98685.81;;;15.84;100.00
21359;BME280;13506;50.852;20.632;2022-10-30T06:12:11;98692.34;;;15.78;100.00
21359;BME280;13506;50.852;20.632;2022-10-30T06:14:59;98663.16;;;15.70;100.00
21359;BME280;13506;50.852;20.632;2022-10-30T06:17:29;98657.50;;;15.76;100.00
21359;BME280;13506;50.852;20.632;2022-10-30T06:20:04;98668.50;;;15.81;100.00
21359;BME280;13506;50.852;20.632;2022-10-30T06:22:55;98664.47;;;15.88;100.00
21359;BME280;13506;50.852;20.632;2022-10-30T06:25:30;98661.28;;;15.96;100.00
21359;BME280;13506;50.852;20.632;2022-10-30T06:28:28;98668.09;;;16.10;100.00
21359;BME280;13506;50.852;20.632;2022-10-30T06:30:57;98671.81;;;16.19;100.00
21359;BME280;13506;50.852;20.632;2022-10-30T06:33:24;98675.88;;;16.23;100.00
21359;BME280;13506;50.852;20.632;2022-10-30T06:35:54;98672.78;;;16.29;100.00
21359;BME280;13506;50.852;20.632;2022-10-30T06:38:21;98675.91;;;16.34;100.00
21359;BME280;13506;50.852;20.632;2022-10-30T06:40:51;98669.22;;;16.41;100.00
21359;BME280;13506;50.852;20.632;2022-10-30T06:43:32;98679.63;;;16.43;100.00
21359;BME280;13506;50.852;20.632;2022-10-30T06:46:16;98675.09;;;16.56;100.00
21359;BME280;13506;50.852;20.632;2022-10-30T06:48:45;98685.81;;;16.76;100.00
21359;BME280;13506;50.852;20.632;2022-10-30T06:51:14;98675.81;;;16.92;100.00
21359;BME280;13506;50.852;20.632;2022-10-30T06:53:44;98683.34;;;16.97;100.00
21359;BME280;13506;50.852;20.632;2022-10-30T06:56:49;98688.94;;;17.03;98.92
21359;BME280;13506;50.852;20.632;2022-10-30T06:59:26;98681.91;;;17.04;97.28
21359;BME280;13506;50.852;20.632;2022-10-30T07:02:15;98674.03;;;17.04;97.27
21359;BME280;13506;50.852;20.632;2022-10-30T07:04:46;98680.94;;;17.05;96.61
21359;BME280;13506;50.852;20.632;2022-10-30T07:07:15;98689.16;;;17.23;97.42
21359;BME280;13506;50.852;20.632;2022-10-30T07:09:42;98694.50;;;17.76;98.83
21359;BME280;13506;50.852;20.632;2022-10-30T07:12:12;98705.34;;;17.94;95.55
21359;BME280;13506;50.852;20.632;2022-10-30T07:14:58;98706.38;;;18.03;94.88
21359;BME280;13506;50.852;20.632;2022-10-30T07:17:39;98724.28;;;18.09;94.85
21359;BME280;13506;50.852;20.632;2022-10-30T07:20:19;98726.53;;;18.14;94.54
21359;BME280;13506;50.852;20.632;2022-10-30T07:22:47;98732.06;;;18.10;94.80
21359;BME280;13506;50.852;20.632;2022-10-30T07:25:16;98735.91;;;18.06;94.08
21359;BME280;13506;50.852;20.632;2022-10-30T07:28:10;98743.88;;;17.95;94.39
21359;BME280;13506;50.852;20.632;2022-10-30T07:30:44;98741.03;;;17.87;94.57
21359;BME280;13506;50.852;20.632;2022-10-30T07:33:20;98743.78;;;17.85;94.62
21359;BME280;13506;50.852;20.632;2022-10-30T07:36:14;98745.69;;;17.83;94.72
21359;BME280;13506;50.852;20.632;2022-10-30T07:39:01;98733.72;;;17.79;94.72
21359;BME280;13506;50.852;20.632;2022-10-30T07:41:37;98731.84;;;17.70;94.06
21359;BME280;13506;50.852;20.632;2022-10-30T07:44:23;98744.41;;;17.66;94.72
21359;BME280;13506;50.852;20.632;2022-10-30T07:47:13;98734.16;;;17.63;94.52
21359;BME280;13506;50.852;20.632;2022-10-30T07:49:56;98737.13;;;17.59;94.56
21359;BME280;13506;50.852;20.632;2022-10-30T07:52:23;98739.75;;;17.59;94.88
21359;BME280;13506;50.852;20.632;2022-10-30T07:54:52;98733.94;;;17.55;94.91
21359;BME280;13506;50.852;20.632;2022-10-30T07:57:52;98725.06;;;17.56;95.09
21359;BME280;13506;50.852;20.632;2022-10-30T08:00:38;98726.97;;;17.54;94.88
21359;BME280;13506;50.852;20.632;2022-10-30T08:03:19;98734.41;;;17.49;94.71
21359;BME280;13506;50.852;20.632;2022-10-30T08:05:55;98735.34;;;17.48;95.15
21359;BME280;13506;50.852;20.632;2022-10-30T08:08:31;98725.69;;;17.48;95.35
21359;BME280;13506;50.852;20.632;2022-10-30T08:11:13;98727.00;;;17.43;95.60
21359;BME280;13506;50.852;20.632;2022-10-30T08:13:41;98717.09;;;17.46;95.38
21359;BME280;13506;50.852;20.632;2022-10-30T08:16:09;98729.97;;;17.49;95.03
21359;BME280;13506;50.852;20.632;2022-10-30T08:18:39;98709.66;;;17.52;95.02
21359;BME280;13506;50.852;20.632;2022-10-30T08:21:09;98701.53;;;17.55;95.25
21359;BME280;13506;50.852;20.632;2022-10-30T08:23:45;98698.03;;;17.65;94.90
21359;BME280;13506;50.852;20.632;2022-10-30T08:26:15;98699.06;;;17.74;94.86
21359;BME280;13506;50.852;20.632;2022-10-30T08:28:43;98694.88;;;17.83;94.28
21359;BME280;13506;50.852;20.632;2022-10-30T08:31:11;98697.81;;;17.89;94.63
21359;BME280;13506;50.852;20.632;2022-10-30T08:34:09;98715.28;;;17.90;94.07
21359;BME280;13506;50.852;20.632;2022-10-30T08:36:52;98722.22;;;17.92;93.95
21359;BME280;13506;50.852;20.632;2022-10-30T08:39:20;98720.53;;;17.90;93.05
21359;BME280;13506;50.852;20.632;2022-10-30T08:41:56;98735.13;;;17.95;93.69
21359;BME280;13506;50.852;20.632;2022-10-30T08:44:29;98738.66;;;18.05;93.89
21359;BME280;13506;50.852;20.632;2022-10-30T08:47:16;98731.94;;;18.12;93.54
21359;BME280;13506;50.852;20.632;2022-10-30T08:49:45;98736.56;;;18.20;93.41
21359;BME280;13506;50.852;20.632;2022-10-30T08:52:16;98732.00;;;18.22;92.81
21359;BME280;13506;50.852;20.632;2022-10-30T08:54:48;98727.91;;;18.29;92.63
21359;BME280;13506;50.852;20.632;2022-10-30T08:57:17;98736.88;;;18.26;92.58
21359;BME280;13506;50.852;20.632;2022-10-30T08:59:45;98724.56;;;18.27;92.45
21359;BME280;13506;50.852;20.632;2022-10-30T09:02:34;98719.84;;;18.30;92.12
21359;BME280;13506;50.852;20.632;2022-10-30T09:05:23;98706.47;;;18.43;92.54
21359;BME280;13506;50.852;20.632;2022-10-30T09:08:18;98699.47;;;18.54;92.23
21359;BME280;13506;50.852;20.632;2022-10-30T09:11:05;98705.69;;;18.74;92.90
21359;BME280;13506;50.852;20.632;2022-10-30T09:13:34;98704.66;;;18.86;91.58
21359;BME280;13506;50.852;20.632;2022-10-30T09:16:04;98695.13;;;18.95;91.18
21359;BME280;13506;50.852;20.632;2022-10-30T09:18:35;98714.81;;;19.00;90.51
21359;BME280;13506;50.852;20.632;2022-10-30T09:21:03;98715.97;;;19.07;90.05
21359;BME280;13506;50.852;20.632;2022-10-30T09:23:35;98709.59;;;19.20;89.64
21359;BME280;13506;50.852;20.632;2022-10-30T09:26:23;98717.75;;;19.47;90.87
21359;BME280;13506;50.852;20.632;2022-10-30T09:29:00;98714.47;;;19.84;89.85
21359;BME280;13506;50.852;20.632;2022-10-30T09:31:54;98720.16;;;20.09;87.53
21359;BME280;13506;50.852;20.632;2022-10-30T09:34:25;98722.34;;;20.23;86.75
21359;BME280;13506;50.852;20.632;2022-10-30T09:37:11;98720.66;;;20.51;87.29
21359;BME280;13506;50.852;20.632;2022-10-30T09:39:44;98718.78;;;20.71;86.65
21359;BME280;13506;50.852;20.632;2022-10-30T09:42:38;98722.03;;;20.93;85.07
21359;BME280;13506;50.852;20.632;2022-10-30T09:49:12;98697.88;;;21.15;83.09
21359;BME280;13506;50.852;20.632;2022-10-30T09:52:05;98698.06;;;21.32;82.65
21359;BME280;13506;50.852;20.632;2022-10-30T09:54:54;98699.19;;;21.57;82.19
21359;BME280;13506;50.852;20.632;2022-10-30T09:57:32;98701.22;;;21.81;80.81
21359;BME280;13506;50.852;20.632;2022-10-30T10:00:09;98695.84;;;21.91;80.29
21359;BME280;13506;50.852;20.632;2022-10-30T10:03:00;98719.72;;;21.99;78.77
21359;BME280;13506;50.852;20.632;2022-10-30T10:05:43;98710.28;;;21.96;79.14
21359;BME280;13506;50.852;20.632;2022-10-30T10:08:38;98714.81;;;21.86;77.41
21359;BME280;13506;50.852;20.632;2022-10-30T10:11:20;98714.44;;;21.81;78.81
21359;BME280;13506;50.852;20.632;2022-10-30T10:13:52;98712.34;;;21.85;78.68
21359;BME280;13506;50.852;20.632;2022-10-30T10:16:27;98720.59;;;22.00;77.74
21359;BME280;13506;50.852;20.632;2022-10-30T10:19:08;98716.31;;;22.07;77.95
21359;BME280;13506;50.852;20.632;2022-10-30T10:21:44;98721.84;;;22.31;77.32
21359;BME280;13506;50.852;20.632;2022-10-30T10:24:17;98709.13;;;22.61;76.62
21359;BME280;13506;50.852;20.632;2022-10-30T10:26:53;98712.00;;;23.02;76.87
21359;BME280;13506;50.852;20.632;2022-10-30T10:29:41;98700.53;;;23.44;75.39
21359;BME280;13506;50.852;20.632;2022-10-30T10:35:55;98692.63;;;24.10;70.94
21359;BME280;13506;50.852;20.632;2022-10-30T10:38:38;98697.13;;;24.17;69.68
21359;BME280;13506;50.852;20.632;2022-10-30T10:41:15;98696.97;;;24.11;70.56
21359;BME280;13506;50.852;20.632;2022-10-30T10:44:03;98696.31;;;24.01;70.70
21359;BME280;13506;50.852;20.632;2022-10-30T10:46:48;98688.63;;;23.81;71.08
21359;BME280;13506;50.852;20.632;2022-10-30T10:49:36;98698.56;;;23.54;71.78
21359;BME280;13506;50.852;20.632;2022-10-30T10:52:10;98695.69;;;23.31;71.02
21359;BME280;13506;50.852;20.632;2022-10-30T10:54:43;98695.47;;;23.16;72.04
21359;BME280;13506;50.852;20.632;2022-10-30T10:57:21;98686.50;;;23.09;72.83
21359;BME280;13506;50.852;20.632;2022-10-30T10:59:57;98696.59;;;23.06;73.74
21359;BME280;13506;50.852;20.632;2022-10-30T11:02:34;98691.81;;;23.09;74.38
21359;BME280;13506;50.852;20.632;2022-10-30T11:05:11;98688.19;;;23.19;72.96
21359;BME280;13506;50.852;20.632;2022-10-30T11:07:46;98690.97;;;23.17;73.39
21359;BME280;13506;50.852;20.632;2022-10-30T11:10:18;98685.19;;;23.22;73.80
21359;BME280;13506;50.852;20.632;2022-10-30T11:12:46;98690.72;;;23.28;73.69
21359;BME280;13506;50.852;20.632;2022-10-30T11:15:35;98698.81;;;23.27;74.19
21359;BME280;13506;50.852;20.632;2022-10-30T11:18:08;98693.81;;;23.24;73.57
21359;BME280;13506;50.852;20.632;2022-10-30T11:20:43;98687.50;;;23.16;73.13
21359;BME280;13506;50.852;20.632;2022-10-30T11:23:37;98684.31;;;23.05;73.77
21359;BME280;13506;50.852;20.632;2022-10-30T11:26:33;98678.75;;;22.90;74.17
21359;BME280;13506;50.852;20.632;2022-10-30T11:29:10;98671.56;;;22.74;74.35
21359;BME280;13506;50.852;20.632;2022-10-30T11:31:41;98664.19;;;22.60;74.96
21359;BME280;13506;50.852;20.632;2022-10-30T11:34:27;98669.28;;;22.53;75.21
21359;BME280;13506;50.852;20.632;2022-10-30T11:36:57;98660.00;;;22.49;75.78
21359;BME280;13506;50.852;20.632;2022-10-30T11:39:27;98659.47;;;22.45;75.88
21359;BME280;13506;50.852;20.632;2022-10-30T11:42:13;98666.53;;;22.36;76.31
21359;BME280;13506;50.852;20.632;2022-10-30T11:44:47;98667.69;;;22.34;76.74
21359;BME280;13506;50.852;20.632;2022-10-30T11:47:21;98662.53;;;22.32;77.42
21359;BME280;13506;50.852;20.632;2022-10-30T11:49:54;98664.03;;;22.35;77.45
21359;BME280;13506;50.852;20.632;2022-10-30T11:52:25;98661.38;;;22.35;77.62
21359;BME280;13506;50.852;20.632;2022-10-30T11:54:57;98671.84;;;22.36;77.07
21359;BME280;13506;50.852;20.632;2022-10-30T11:57:33;98682.34;;;22.46;76.88
21359;BME280;13506;50.852;20.632;2022-10-30T12:00:05;98671.41;;;22.49;76.36
21359;BME280;13506;50.852;20.632;2022-10-30T12:02:44;98664.28;;;22.50;76.35
21359;BME280;13506;50.852;20.632;2022-10-30T12:05:36;98649.84;;;22.44;76.63
21359;BME280;13506;50.852;20.632;2022-10-30T12:08:20;98661.28;;;22.45;76.72
21359;BME280;13506;50.852;20.632;2022-10-30T12:10:58;98661.09;;;22.38;76.57
21359;BME280;13506;50.852;20.632;2022-10-30T12:13:37;98656.47;;;22.40;76.90
21359;BME280;13506;50.852;20.632;2022-10-30T12:16:12;98661.63;;;22.42;76.96
21359;BME280;13506;50.852;20.632;2022-10-30T12:18:52;98659.25;;;22.39;77.30
21359;BME280;13506;50.852;20.632;2022-10-30T12:21:24;98653.34;;;22.45;76.88
21359;BME280;13506;50.852;20.632;2022-10-30T12:23:56;98643.41;;;22.47;76.38
21359;BME280;13506;50.852;20.632;2022-10-30T12:26:28;98644.28;;;22.55;76.54
21359;BME280;13506;50.852;20.632;2022-10-30T12:29:00;98646.50;;;22.68;76.52
21359;BME280;13506;50.852;20.632;2022-10-30T12:31:37;98639.38;;;22.77;75.67
21359;BME280;13506;50.852;20.632;2022-10-30T12:34:33;98634.22;;;23.02;75.62
21359;BME280;13506;50.852;20.632;2022-10-30T12:37:11;98629.09;;;23.08;74.92
21359;BME280;13506;50.852;20.632;2022-10-30T12:39:54;98623.47;;;23.20;74.69
21359;BME280;13506;50.852;20.632;2022-10-30T12:42:25;98614.66;;;23.19;74.00
21359;BME280;13506;50.852;20.632;2022-10-30T12:45:08;98617.66;;;23.16;74.19
21359;BME280;13506;50.852;20.632;2022-10-30T12:47:44;98624.94;;;23.06;74.55
21359;BME280;13506;50.852;20.632;2022-10-30T12:50:22;98620.31;;;23.08;74.46
21359;BME280;13506;50.852;20.632;2022-10-30T12:52:58;98614.00;;;23.17;74.71
21359;BME280;13506;50.852;20.632;2022-10-30T12:55:34;98629.47;;;23.30;74.12
21359;BME280;13506;50.852;20.632;2022-10-30T12:58:13;98625.63;;;23.32;73.92
21359;BME280;13506;50.852;20.632;2022-10-30T13:00:53;98628.31;;;23.24;73.37
21359;BME280;13506;50.852;20.632;2022-10-30T13:03:30;98628.28;;;23.16;73.78
21359;BME280;13506;50.852;20.632;2022-10-30T13:06:10;98621.44;;;23.13;71.10
21359;BME280;13506;50.852;20.632;2022-10-30T13:08:48;98622.47;;;23.12;70.89
21359;BME280;13506;50.852;20.632;2022-10-30T13:11:38;98625.13;;;23.21;71.54
21359;BME280;13506;50.852;20.632;2022-10-30T13:14:14;98623.66;;;23.26;71.19
21359;BME280;13506;50.852;20.632;2022-10-30T13:16:42;98624.81;;;23.32;70.71
21359;BME280;13506;50.852;20.632;2022-10-30T13:19:12;98628.81;;;23.36;70.17
21359;BME280;13506;50.852;20.632;2022-10-30T13:21:50;98625.50;;;23.42;69.91
21359;BME280;13506;50.852;20.632;2022-10-30T13:24:26;98622.84;;;23.42;69.72
21359;BME280;13506;50.852;20.632;2022-10-30T13:27:06;98617.19;;;23.29;70.16
21359;BME280;13506;50.852;20.632;2022-10-30T13:29:44;98611.34;;;23.17;70.13
21359;BME280;13506;50.852;20.632;2022-10-30T13:32:29;98610.84;;;23.13;70.52
21359;BME280;13506;50.852;20.632;2022-10-30T13:35:12;98607.19;;;23.06;70.81